sensor_id;sensor_type;location;lat;lon;timestamp;P1;durP1;ratioP1;P2;durP2;ratioP2
20114;SDS011;10218;42.874;25.320;2023-04-03T00:00:54;5.47;;;3.93;;
20114;SDS011;10218;42.874;25.320;2023-04-03T00:03:22;8.63;;;4.17;;
20114;SDS011;10218;42.874;25.320;2023-04-03T00:05:49;7.93;;;4.30;;
20114;SDS011;10218;42.874;25.320;2023-04-03T00:08:16;9.73;;;3.60;;
20114;SDS011;10218;42.874;25.320;2023-04-03T00:10:44;5.17;;;3.70;;
20114;SDS011;10218;42.874;25.320;2023-04-03T00:13:11;5.17;;;3.73;;
20114;SDS011;10218;42.874;25.320;2023-04-03T00:15:38;5.77;;;3.73;;
20114;SDS011;10218;42.874;25.320;2023-04-03T00:18:06;4.87;;;3.40;;
20114;SDS011;10218;42.874;25.320;2023-04-03T00:20:34;6.20;;;4.00;;
20114;SDS011;10218;42.874;25.320;2023-04-03T00:23:01;6.20;;;3.80;;
20114;SDS011;10218;42.874;25.320;2023-04-03T00:25:29;7.77;;;3.83;;
20114;SDS011;10218;42.874;25.320;2023-04-03T00:27:56;8.00;;;3.97;;
20114;SDS011;10218;42.874;25.320;2023-04-03T00:30:23;5.50;;;3.60;;
20114;SDS011;10218;42.874;25.320;2023-04-03T00:32:51;7.60;;;3.57;;
20114;SDS011;10218;42.874;25.320;2023-04-03T00:35:19;5.37;;;3.87;;
20114;SDS011;10218;42.874;25.320;2023-04-03T00:37:47;6.13;;;4.00;;
20114;SDS011;10218;42.874;25.320;2023-04-03T00:40:18;6.80;;;3.97;;
20114;SDS011;10218;42.874;25.320;2023-04-03T00:42:46;6.50;;;4.20;;
20114;SDS011;10218;42.874;25.320;2023-04-03T00:47:45;9.23;;;4.43;;
20114;SDS011;10218;42.874;25.320;2023-04-03T00:50:12;11.97;;;7.37;;
20114;SDS011;10218;42.874;25.320;2023-04-03T00:52:39;11.67;;;7.27;;
20114;SDS011;10218;42.874;25.320;2023-04-03T00:55:07;7.33;;;4.30;;
20114;SDS011;10218;42.874;25.320;2023-04-03T00:57:35;6.63;;;3.73;;
20114;SDS011;10218;42.874;25.320;2023-04-03T01:00:08;9.00;;;4.00;;
20114;SDS011;10218;42.874;25.320;2023-04-03T01:02:39;5.77;;;3.60;;
20114;SDS011;10218;42.874;25.320;2023-04-03T01:05:07;7.97;;;3.90;;
20114;SDS011;10218;42.874;25.320;2023-04-03T01:07:36;10.97;;;3.53;;
20114;SDS011;10218;42.874;25.320;2023-04-03T01:10:06;6.23;;;3.53;;
20114;SDS011;10218;42.874;25.320;2023-04-03T01:12:36;6.20;;;3.93;;
20114;SDS011;10218;42.874;25.320;2023-04-03T01:15:07;5.43;;;3.70;;
20114;SDS011;10218;42.874;25.320;2023-04-03T01:18:01;4.60;;;3.47;;
20114;SDS011;10218;42.874;25.320;2023-04-03T01:25:40;4.77;;;3.40;;
20114;SDS011;10218;42.874;25.320;2023-04-03T01:28:09;4.03;;;2.60;;
20114;SDS011;10218;42.874;25.320;2023-04-03T01:30:44;6.90;;;2.37;;
20114;SDS011;10218;42.874;25.320;2023-04-03T01:33:13;6.00;;;2.90;;
20114;SDS011;10218;42.874;25.320;2023-04-03T01:35:40;4.53;;;2.07;;
20114;SDS011;10218;42.874;25.320;2023-04-03T01:38:08;3.97;;;2.30;;
20114;SDS011;10218;42.874;25.320;2023-04-03T01:40:35;3.10;;;2.00;;
20114;SDS011;10218;42.874;25.320;2023-04-03T01:43:02;3.03;;;2.30;;
20114;SDS011;10218;42.874;25.320;2023-04-03T01:45:30;2.27;;;1.83;;
20114;SDS011;10218;42.874;25.320;2023-04-03T01:47:57;2.63;;;2.00;;
20114;SDS011;10218;42.874;25.320;2023-04-03T01:50:25;2.03;;;1.77;;
20114;SDS011;10218;42.874;25.320;2023-04-03T01:52:52;4.07;;;2.33;;
20114;SDS011;10218;42.874;25.320;2023-04-03T01:55:19;9.03;;;4.17;;
20114;SDS011;10218;42.874;25.320;2023-04-03T01:57:46;8.43;;;4.50;;
20114;SDS011;10218;42.874;25.320;2023-04-03T02:00:14;9.23;;;5.13;;
20114;SDS011;10218;42.874;25.320;2023-04-03T02:02:41;10.90;;;5.23;;
20114;SDS011;10218;42.874;25.320;2023-04-03T02:05:08;11.67;;;5.87;;
20114;SDS011;10218;42.874;25.320;2023-04-03T02:07:35;10.93;;;5.37;;
20114;SDS011;10218;42.874;25.320;2023-04-03T02:10:03;8.20;;;3.90;;
20114;SDS011;10218;42.874;25.320;2023-04-03T02:12:30;7.77;;;4.30;;
20114;SDS011;10218;42.874;25.320;2023-04-03T02:14:57;3.00;;;2.23;;
20114;SDS011;10218;42.874;25.320;2023-04-03T02:17:25;4.10;;;2.50;;
20114;SDS011;10218;42.874;25.320;2023-04-03T02:19:53;2.73;;;2.20;;
20114;SDS011;10218;42.874;25.320;2023-04-03T02:22:22;3.87;;;2.00;;
20114;SDS011;10218;42.874;25.320;2023-04-03T02:24:50;4.67;;;3.03;;
20114;SDS011;10218;42.874;25.320;2023-04-03T02:27:19;3.53;;;2.20;;
20114;SDS011;10218;42.874;25.320;2023-04-03T02:29:47;3.20;;;2.50;;
20114;SDS011;10218;42.874;25.320;2023-04-03T02:32:14;4.67;;;3.27;;
20114;SDS011;10218;42.874;25.320;2023-04-03T02:34:42;6.03;;;3.20;;
20114;SDS011;10218;42.874;25.320;2023-04-03T02:37:10;4.17;;;3.07;;
20114;SDS011;10218;42.874;25.320;2023-04-03T02:39:38;4.90;;;3.60;;
20114;SDS011;10218;42.874;25.320;2023-04-03T02:42:05;15.63;;;5.03;;
20114;SDS011;10218;42.874;25.320;2023-04-03T02:44:34;3.17;;;2.60;;
20114;SDS011;10218;42.874;25.320;2023-04-03T02:47:02;5.77;;;2.40;;
20114;SDS011;10218;42.874;25.320;2023-04-03T02:49:29;5.70;;;3.13;;
20114;SDS011;10218;42.874;25.320;2023-04-03T02:51:56;4.77;;;3.07;;
20114;SDS011;10218;42.874;25.320;2023-04-03T02:54:24;3.10;;;2.53;;
20114;SDS011;10218;42.874;25.320;2023-04-03T02:56:54;4.43;;;2.40;;
20114;SDS011;10218;42.874;25.320;2023-04-03T02:59:21;3.97;;;2.77;;
20114;SDS011;10218;42.874;25.320;2023-04-03T03:01:49;4.73;;;2.43;;
20114;SDS011;10218;42.874;25.320;2023-04-03T03:04:16;5.83;;;2.90;;
20114;SDS011;10218;42.874;25.320;2023-04-03T03:06:43;7.10;;;4.20;;
20114;SDS011;10218;42.874;25.320;2023-04-03T03:09:10;7.57;;;4.37;;
20114;SDS011;10218;42.874;25.320;2023-04-03T03:11:37;7.93;;;4.33;;
20114;SDS011;10218;42.874;25.320;2023-04-03T03:14:04;7.47;;;4.80;;
20114;SDS011;10218;42.874;25.320;2023-04-03T03:16:32;8.07;;;5.07;;
20114;SDS011;10218;42.874;25.320;2023-04-03T03:18:59;7.60;;;4.70;;
20114;SDS011;10218;42.874;25.320;2023-04-03T03:21:27;7.63;;;4.50;;
20114;SDS011;10218;42.874;25.320;2023-04-03T03:23:54;6.80;;;4.30;;
20114;SDS011;10218;42.874;25.320;2023-04-03T03:26:21;8.10;;;4.70;;
20114;SDS011;10218;42.874;25.320;2023-04-03T03:28:48;7.10;;;4.80;;
20114;SDS011;10218;42.874;25.320;2023-04-03T03:31:15;7.67;;;5.40;;
20114;SDS011;10218;42.874;25.320;2023-04-03T03:33:42;8.00;;;5.53;;
20114;SDS011;10218;42.874;25.320;2023-04-03T03:36:09;11.07;;;6.10;;
20114;SDS011;10218;42.874;25.320;2023-04-03T03:38:37;8.63;;;5.50;;
20114;SDS011;10218;42.874;25.320;2023-04-03T03:41:04;9.13;;;5.77;;
20114;SDS011;10218;42.874;25.320;2023-04-03T03:43:32;7.83;;;4.67;;
20114;SDS011;10218;42.874;25.320;2023-04-03T03:45:59;9.83;;;5.23;;
20114;SDS011;10218;42.874;25.320;2023-04-03T03:48:26;7.60;;;5.17;;
20114;SDS011;10218;42.874;25.320;2023-04-03T03:50:54;8.03;;;5.17;;
20114;SDS011;10218;42.874;25.320;2023-04-03T03:53:22;6.63;;;4.63;;
20114;SDS011;10218;42.874;25.320;2023-04-03T03:55:50;6.70;;;4.70;;
20114;SDS011;10218;42.874;25.320;2023-04-03T03:58:18;8.27;;;5.57;;
20114;SDS011;10218;42.874;25.320;2023-04-03T04:00:46;9.23;;;5.67;;
20114;SDS011;10218;42.874;25.320;2023-04-03T04:03:13;10.93;;;6.07;;
20114;SDS011;10218;42.874;25.320;2023-04-03T04:05:41;12.43;;;7.30;;
20114;SDS011;10218;42.874;25.320;2023-04-03T04:08:09;12.40;;;7.70;;
20114;SDS011;10218;42.874;25.320;2023-04-03T04:10:37;15.67;;;8.87;;
20114;SDS011;10218;42.874;25.320;2023-04-03T04:13:04;14.47;;;9.17;;
20114;SDS011;10218;42.874;25.320;2023-04-03T04:15:32;15.97;;;9.07;;
20114;SDS011;10218;42.874;25.320;2023-04-03T04:17:59;10.27;;;6.80;;
20114;SDS011;10218;42.874;25.320;2023-04-03T04:20:26;14.50;;;7.83;;
20114;SDS011;10218;42.874;25.320;2023-04-03T04:22:53;9.83;;;5.87;;
20114;SDS011;10218;42.874;25.320;2023-04-03T04:25:21;11.17;;;7.70;;
20114;SDS011;10218;42.874;25.320;2023-04-03T04:27:48;11.40;;;6.60;;
20114;SDS011;10218;42.874;25.320;2023-04-03T04:30:15;14.13;;;7.83;;
20114;SDS011;10218;42.874;25.320;2023-04-03T04:32:43;12.77;;;6.97;;
20114;SDS011;10218;42.874;25.320;2023-04-03T04:35:10;10.23;;;5.83;;
20114;SDS011;10218;42.874;25.320;2023-04-03T04:37:38;5.87;;;4.40;;
20114;SDS011;10218;42.874;25.320;2023-04-03T04:40:06;9.53;;;5.97;;
20114;SDS011;10218;42.874;25.320;2023-04-03T04:42:34;7.37;;;4.70;;
20114;SDS011;10218;42.874;25.320;2023-04-03T04:45:01;9.83;;;6.43;;
20114;SDS011;10218;42.874;25.320;2023-04-03T04:47:28;12.90;;;6.43;;
20114;SDS011;10218;42.874;25.320;2023-04-03T04:49:56;9.67;;;5.60;;
20114;SDS011;10218;42.874;25.320;2023-04-03T04:52:24;14.10;;;7.57;;
20114;SDS011;10218;42.874;25.320;2023-04-03T04:54:51;12.57;;;6.47;;
20114;SDS011;10218;42.874;25.320;2023-04-03T04:57:18;13.00;;;6.53;;
20114;SDS011;10218;42.874;25.320;2023-04-03T04:59:46;13.27;;;7.73;;
20114;SDS011;10218;42.874;25.320;2023-04-03T05:02:13;15.97;;;8.27;;
20114;SDS011;10218;42.874;25.320;2023-04-03T05:04:41;13.40;;;8.23;;
20114;SDS011;10218;42.874;25.320;2023-04-03T05:07:08;14.30;;;7.87;;
20114;SDS011;10218;42.874;25.320;2023-04-03T05:09:36;8.47;;;6.07;;
20114;SDS011;10218;42.874;25.320;2023-04-03T05:12:03;12.10;;;6.23;;
20114;SDS011;10218;42.874;25.320;2023-04-03T05:14:31;13.50;;;7.27;;
20114;SDS011;10218;42.874;25.320;2023-04-03T05:16:59;12.00;;;7.50;;
20114;SDS011;10218;42.874;25.320;2023-04-03T05:19:26;14.63;;;6.80;;
20114;SDS011;10218;42.874;25.320;2023-04-03T05:21:54;11.80;;;6.40;;
20114;SDS011;10218;42.874;25.320;2023-04-03T05:24:21;11.07;;;6.57;;
20114;SDS011;10218;42.874;25.320;2023-04-03T05:26:48;11.33;;;5.83;;
20114;SDS011;10218;42.874;25.320;2023-04-03T05:29:16;9.07;;;6.17;;
20114;SDS011;10218;42.874;25.320;2023-04-03T05:31:43;14.53;;;7.70;;
20114;SDS011;10218;42.874;25.320;2023-04-03T05:34:11;9.20;;;4.33;;
20114;SDS011;10218;42.874;25.320;2023-04-03T05:36:38;4.67;;;2.80;;
20114;SDS011;10218;42.874;25.320;2023-04-03T05:39:06;5.23;;;4.03;;
20114;SDS011;10218;42.874;25.320;2023-04-03T05:41:35;13.50;;;6.80;;
20114;SDS011;10218;42.874;25.320;2023-04-03T05:44:02;12.43;;;6.87;;
20114;SDS011;10218;42.874;25.320;2023-04-03T05:46:29;13.87;;;7.63;;
20114;SDS011;10218;42.874;25.320;2023-04-03T05:48:57;7.43;;;4.53;;
20114;SDS011;10218;42.874;25.320;2023-04-03T05:51:25;8.50;;;4.90;;
20114;SDS011;10218;42.874;25.320;2023-04-03T05:54:04;9.50;;;5.97;;
20114;SDS011;10218;42.874;25.320;2023-04-03T05:56:36;6.90;;;4.70;;
20114;SDS011;10218;42.874;25.320;2023-04-03T05:59:04;8.70;;;5.20;;
20114;SDS011;10218;42.874;25.320;2023-04-03T06:01:31;9.10;;;5.17;;
20114;SDS011;10218;42.874;25.320;2023-04-03T06:03:58;10.60;;;6.10;;
20114;SDS011;10218;42.874;25.320;2023-04-03T06:06:25;14.30;;;7.50;;
20114;SDS011;10218;42.874;25.320;2023-04-03T06:08:54;21.20;;;7.80;;
20114;SDS011;10218;42.874;25.320;2023-04-03T06:11:21;19.90;;;8.30;;
20114;SDS011;10218;42.874;25.320;2023-04-03T06:13:49;8.93;;;5.67;;
20114;SDS011;10218;42.874;25.320;2023-04-03T06:16:16;13.17;;;7.60;;
20114;SDS011;10218;42.874;25.320;2023-04-03T06:18:44;11.40;;;6.80;;
20114;SDS011;10218;42.874;25.320;2023-04-03T06:21:11;14.07;;;7.70;;
20114;SDS011;10218;42.874;25.320;2023-04-03T06:23:39;19.60;;;9.63;;
20114;SDS011;10218;42.874;25.320;2023-04-03T06:26:07;17.73;;;8.60;;
20114;SDS011;10218;42.874;25.320;2023-04-03T06:28:34;17.47;;;8.30;;
20114;SDS011;10218;42.874;25.320;2023-04-03T06:31:01;16.67;;;8.83;;
20114;SDS011;10218;42.874;25.320;2023-04-03T06:33:28;21.70;;;8.63;;
20114;SDS011;10218;42.874;25.320;2023-04-03T06:35:57;19.57;;;8.80;;
20114;SDS011;10218;42.874;25.320;2023-04-03T06:38:25;15.43;;;7.27;;
20114;SDS011;10218;42.874;25.320;2023-04-03T06:40:52;16.60;;;9.40;;
20114;SDS011;10218;42.874;25.320;2023-04-03T06:43:19;17.40;;;7.73;;
20114;SDS011;10218;42.874;25.320;2023-04-03T06:45:48;10.70;;;6.23;;
20114;SDS011;10218;42.874;25.320;2023-04-03T06:48:15;12.77;;;7.13;;
20114;SDS011;10218;42.874;25.320;2023-04-03T06:50:43;16.77;;;7.90;;
20114;SDS011;10218;42.874;25.320;2023-04-03T06:53:10;14.10;;;7.33;;
20114;SDS011;10218;42.874;25.320;2023-04-03T06:55:38;16.67;;;7.77;;
20114;SDS011;10218;42.874;25.320;2023-04-03T06:58:06;14.40;;;7.00;;
20114;SDS011;10218;42.874;25.320;2023-04-03T07:00:33;12.00;;;7.30;;
20114;SDS011;10218;42.874;25.320;2023-04-03T07:03:01;16.83;;;7.43;;
20114;SDS011;10218;42.874;25.320;2023-04-03T07:05:28;16.00;;;6.90;;
20114;SDS011;10218;42.874;25.320;2023-04-03T07:07:55;14.73;;;7.77;;
20114;SDS011;10218;42.874;25.320;2023-04-03T07:10:22;12.60;;;6.87;;
20114;SDS011;10218;42.874;25.320;2023-04-03T07:12:49;8.80;;;6.03;;
20114;SDS011;10218;42.874;25.320;2023-04-03T07:15:17;11.30;;;6.80;;
20114;SDS011;10218;42.874;25.320;2023-04-03T07:17:44;9.43;;;6.10;;
20114;SDS011;10218;42.874;25.320;2023-04-03T07:20:12;10.57;;;5.60;;
20114;SDS011;10218;42.874;25.320;2023-04-03T07:22:39;8.67;;;5.30;;
20114;SDS011;10218;42.874;25.320;2023-04-03T07:25:06;7.00;;;3.93;;
20114;SDS011;10218;42.874;25.320;2023-04-03T07:27:34;3.17;;;1.93;;
20114;SDS011;10218;42.874;25.320;2023-04-03T07:30:01;3.10;;;2.07;;
20114;SDS011;10218;42.874;25.320;2023-04-03T07:32:28;2.87;;;1.90;;
20114;SDS011;10218;42.874;25.320;2023-04-03T07:34:56;2.77;;;2.07;;
20114;SDS011;10218;42.874;25.320;2023-04-03T07:37:23;2.60;;;2.10;;
20114;SDS011;10218;42.874;25.320;2023-04-03T07:39:50;5.77;;;2.50;;
20114;SDS011;10218;42.874;25.320;2023-04-03T07:42:18;2.63;;;1.90;;
20114;SDS011;10218;42.874;25.320;2023-04-03T07:44:45;4.13;;;2.00;;
20114;SDS011;10218;42.874;25.320;2023-04-03T07:47:13;2.47;;;1.90;;
20114;SDS011;10218;42.874;25.320;2023-04-03T07:49:41;3.30;;;2.40;;
20114;SDS011;10218;42.874;25.320;2023-04-03T07:52:08;2.27;;;2.03;;
20114;SDS011;10218;42.874;25.320;2023-04-03T07:54:35;3.40;;;1.47;;
20114;SDS011;10218;42.874;25.320;2023-04-03T07:57:03;2.03;;;1.70;;
20114;SDS011;10218;42.874;25.320;2023-04-03T07:59:30;5.30;;;2.40;;
20114;SDS011;10218;42.874;25.320;2023-04-03T08:01:57;3.90;;;1.63;;
20114;SDS011;10218;42.874;25.320;2023-04-03T08:04:24;2.57;;;1.80;;
20114;SDS011;10218;42.874;25.320;2023-04-03T08:06:52;3.00;;;1.87;;
20114;SDS011;10218;42.874;25.320;2023-04-03T08:09:19;2.67;;;1.57;;
20114;SDS011;10218;42.874;25.320;2023-04-03T08:11:47;4.70;;;1.87;;
20114;SDS011;10218;42.874;25.320;2023-04-03T08:14:14;1.47;;;1.20;;
20114;SDS011;10218;42.874;25.320;2023-04-03T08:16:45;1.80;;;1.30;;
20114;SDS011;10218;42.874;25.320;2023-04-03T08:19:14;3.33;;;1.70;;
20114;SDS011;10218;42.874;25.320;2023-04-03T08:21:50;1.97;;;1.57;;
20114;SDS011;10218;42.874;25.320;2023-04-03T08:24:18;1.90;;;1.47;;
20114;SDS011;10218;42.874;25.320;2023-04-03T08:26:45;5.20;;;2.50;;
20114;SDS011;10218;42.874;25.320;2023-04-03T08:29:11;8.60;;;4.23;;
20114;SDS011;10218;42.874;25.320;2023-04-03T08:31:40;2.57;;;1.80;;
20114;SDS011;10218;42.874;25.320;2023-04-03T08:34:07;2.00;;;1.63;;
20114;SDS011;10218;42.874;25.320;2023-04-03T08:36:35;2.63;;;1.40;;
20114;SDS011;10218;42.874;25.320;2023-04-03T08:39:02;2.43;;;1.40;;
20114;SDS011;10218;42.874;25.320;2023-04-03T08:41:32;2.20;;;1.70;;
20114;SDS011;10218;42.874;25.320;2023-04-03T08:44:03;1.57;;;1.20;;
20114;SDS011;10218;42.874;25.320;2023-04-03T08:46:42;1.50;;;1.00;;
20114;SDS011;10218;42.874;25.320;2023-04-03T08:50:11;1.23;;;1.13;;
20114;SDS011;10218;42.874;25.320;2023-04-03T08:55:00;2.27;;;1.60;;
20114;SDS011;10218;42.874;25.320;2023-04-03T09:00:01;1.63;;;1.20;;
20114;SDS011;10218;42.874;25.320;2023-04-03T09:02:35;1.93;;;1.53;;
20114;SDS011;10218;42.874;25.320;2023-04-03T09:05:13;2.33;;;1.67;;
20114;SDS011;10218;42.874;25.320;2023-04-03T09:07:54;3.83;;;1.50;;
20114;SDS011;10218;42.874;25.320;2023-04-03T09:10:32;2.10;;;1.70;;
20114;SDS011;10218;42.874;25.320;2023-04-03T09:13:06;2.43;;;1.83;;
20114;SDS011;10218;42.874;25.320;2023-04-03T09:15:34;3.40;;;1.80;;
20114;SDS011;10218;42.874;25.320;2023-04-03T09:18:21;5.13;;;1.90;;
20114;SDS011;10218;42.874;25.320;2023-04-03T09:26:18;3.70;;;2.13;;
20114;SDS011;10218;42.874;25.320;2023-04-03T09:28:54;3.23;;;2.00;;
20114;SDS011;10218;42.874;25.320;2023-04-03T09:31:25;4.43;;;2.10;;
20114;SDS011;10218;42.874;25.320;2023-04-03T09:34:22;3.40;;;2.00;;
20114;SDS011;10218;42.874;25.320;2023-04-03T09:36:53;3.80;;;1.87;;
20114;SDS011;10218;42.874;25.320;2023-04-03T09:39:26;3.60;;;1.90;;
20114;SDS011;10218;42.874;25.320;2023-04-03T09:44:30;4.20;;;1.87;;
20114;SDS011;10218;42.874;25.320;2023-04-03T09:50:08;3.47;;;2.30;;
20114;SDS011;10218;42.874;25.320;2023-04-03T09:52:36;3.10;;;2.30;;
20114;SDS011;10218;42.874;25.320;2023-04-03T09:55:10;2.90;;;1.70;;
20114;SDS011;10218;42.874;25.320;2023-04-03T09:57:41;3.33;;;2.07;;
20114;SDS011;10218;42.874;25.320;2023-04-03T10:00:54;6.10;;;2.20;;
20114;SDS011;10218;42.874;25.320;2023-04-03T10:03:03;3.63;;;2.23;;
20114;SDS011;10218;42.874;25.320;2023-04-03T10:08:07;3.23;;;2.40;;
20114;SDS011;10218;42.874;25.320;2023-04-03T10:10:41;5.73;;;2.43;;
20114;SDS011;10218;42.874;25.320;2023-04-03T10:13:11;3.63;;;2.10;;
20114;SDS011;10218;42.874;25.320;2023-04-03T10:15:51;3.17;;;1.43;;
20114;SDS011;10218;42.874;25.320;2023-04-03T10:18:30;2.90;;;1.60;;
20114;SDS011;10218;42.874;25.320;2023-04-03T10:21:13;5.67;;;2.40;;
20114;SDS011;10218;42.874;25.320;2023-04-03T10:26:58;4.03;;;1.67;;
20114;SDS011;10218;42.874;25.320;2023-04-03T10:34:56;4.43;;;1.90;;
20114;SDS011;10218;42.874;25.320;2023-04-03T10:40:47;6.13;;;2.10;;
20114;SDS011;10218;42.874;25.320;2023-04-03T10:51:34;1.57;;;1.40;;
20114;SDS011;10218;42.874;25.320;2023-04-03T10:54:11;2.00;;;1.40;;
20114;SDS011;10218;42.874;25.320;2023-04-03T10:56:43;5.60;;;1.80;;
20114;SDS011;10218;42.874;25.320;2023-04-03T11:01:49;3.77;;;1.90;;
20114;SDS011;10218;42.874;25.320;2023-04-03T11:04:20;2.70;;;1.70;;
20114;SDS011;10218;42.874;25.320;2023-04-03T11:06:52;1.70;;;1.47;;
20114;SDS011;10218;42.874;25.320;2023-04-03T11:09:41;2.53;;;1.97;;
20114;SDS011;10218;42.874;25.320;2023-04-03T11:12:19;2.83;;;1.60;;
20114;SDS011;10218;42.874;25.320;2023-04-03T11:14:51;2.00;;;1.67;;
20114;SDS011;10218;42.874;25.320;2023-04-03T11:17:24;3.80;;;1.90;;
20114;SDS011;10218;42.874;25.320;2023-04-03T11:20:14;4.63;;;2.00;;
20114;SDS011;10218;42.874;25.320;2023-04-03T11:22:45;4.23;;;2.10;;
20114;SDS011;10218;42.874;25.320;2023-04-03T11:25:21;3.20;;;2.30;;
20114;SDS011;10218;42.874;25.320;2023-04-03T11:30:30;6.33;;;2.50;;
20114;SDS011;10218;42.874;25.320;2023-04-03T11:33:18;2.40;;;1.60;;
20114;SDS011;10218;42.874;25.320;2023-04-03T11:36:10;1.57;;;1.20;;
20114;SDS011;10218;42.874;25.320;2023-04-03T11:38:52;4.97;;;3.60;;
20114;SDS011;10218;42.874;25.320;2023-04-03T11:41:24;2.73;;;2.20;;
20114;SDS011;10218;42.874;25.320;2023-04-03T11:44:40;3.63;;;2.50;;
20114;SDS011;10218;42.874;25.320;2023-04-03T11:47:06;4.97;;;3.57;;
20114;SDS011;10218;42.874;25.320;2023-04-03T12:01:00;2.57;;;1.70;;
20114;SDS011;10218;42.874;25.320;2023-04-03T12:16:28;3.67;;;2.30;;
20114;SDS011;10218;42.874;25.320;2023-04-03T12:29:21;6.90;;;5.10;;
20114;SDS011;10218;42.874;25.320;2023-04-03T12:40:07;7.03;;;4.30;;
20114;SDS011;10218;42.874;25.320;2023-04-03T12:45:52;6.23;;;3.60;;
20114;SDS011;10218;42.874;25.320;2023-04-03T12:48:24;5.30;;;3.80;;
20114;SDS011;10218;42.874;25.320;2023-04-03T12:50:53;4.97;;;3.63;;
20114;SDS011;10218;42.874;25.320;2023-04-03T12:53:29;5.33;;;2.90;;
20114;SDS011;10218;42.874;25.320;2023-04-03T12:56:23;5.53;;;3.03;;
20114;SDS011;10218;42.874;25.320;2023-04-03T12:58:52;3.83;;;2.90;;
20114;SDS011;10218;42.874;25.320;2023-04-03T13:01:21;6.23;;;3.67;;
20114;SDS011;10218;42.874;25.320;2023-04-03T13:03:56;5.20;;;3.53;;
20114;SDS011;10218;42.874;25.320;2023-04-03T13:06:32;3.97;;;3.17;;
20114;SDS011;10218;42.874;25.320;2023-04-03T13:09:05;6.43;;;4.23;;
20114;SDS011;10218;42.874;25.320;2023-04-03T13:11:44;5.70;;;4.17;;
20114;SDS011;10218;42.874;25.320;2023-04-03T13:14:16;5.33;;;3.57;;
20114;SDS011;10218;42.874;25.320;2023-04-03T13:16:53;10.03;;;4.57;;
20114;SDS011;10218;42.874;25.320;2023-04-03T13:19:25;7.43;;;5.00;;
20114;SDS011;10218;42.874;25.320;2023-04-03T13:22:02;5.70;;;4.00;;
20114;SDS011;10218;42.874;25.320;2023-04-03T13:24:47;7.23;;;4.57;;
20114;SDS011;10218;42.874;25.320;2023-04-03T13:27:17;7.13;;;5.00;;
20114;SDS011;10218;42.874;25.320;2023-04-03T13:29:48;6.37;;;5.37;;
20114;SDS011;10218;42.874;25.320;2023-04-03T13:32:22;8.63;;;6.70;;
20114;SDS011;10218;42.874;25.320;2023-04-03T13:34:52;15.60;;;9.43;;
20114;SDS011;10218;42.874;25.320;2023-04-03T13:40:09;40.63;;;29.83;;
20114;SDS011;10218;42.874;25.320;2023-04-03T13:42:39;16.10;;;12.20;;
20114;SDS011;10218;42.874;25.320;2023-04-03T13:47:44;15.47;;;11.87;;
20114;SDS011;10218;42.874;25.320;2023-04-03T13:50:24;9.67;;;7.10;;
20114;SDS011;10218;42.874;25.320;2023-04-03T13:52:53;19.67;;;14.50;;
20114;SDS011;10218;42.874;25.320;2023-04-03T13:55:31;21.90;;;16.93;;
20114;SDS011;10218;42.874;25.320;2023-04-03T13:58:02;14.67;;;11.83;;
20114;SDS011;10218;42.874;25.320;2023-04-03T14:00:32;14.20;;;10.50;;
20114;SDS011;10218;42.874;25.320;2023-04-03T14:03:24;9.50;;;6.77;;
20114;SDS011;10218;42.874;25.320;2023-04-03T14:06:13;8.70;;;6.30;;
20114;SDS011;10218;42.874;25.320;2023-04-03T14:08:45;13.73;;;10.17;;
20114;SDS011;10218;42.874;25.320;2023-04-03T14:11:14;5.70;;;4.43;;
20114;SDS011;10218;42.874;25.320;2023-04-03T14:13:44;10.03;;;6.60;;
20114;SDS011;10218;42.874;25.320;2023-04-03T14:16:32;12.10;;;8.23;;
20114;SDS011;10218;42.874;25.320;2023-04-03T14:19:05;6.87;;;5.10;;
20114;SDS011;10218;42.874;25.320;2023-04-03T14:21:32;19.10;;;13.00;;
20114;SDS011;10218;42.874;25.320;2023-04-03T14:23:59;6.60;;;5.43;;
20114;SDS011;10218;42.874;25.320;2023-04-03T14:26:27;19.20;;;13.53;;
20114;SDS011;10218;42.874;25.320;2023-04-03T14:28:57;91.37;;;68.30;;
20114;SDS011;10218;42.874;25.320;2023-04-03T14:31:24;54.67;;;44.70;;
20114;SDS011;10218;42.874;25.320;2023-04-03T14:33:51;22.57;;;16.73;;
20114;SDS011;10218;42.874;25.320;2023-04-03T14:36:22;14.07;;;9.93;;
20114;SDS011;10218;42.874;25.320;2023-04-03T14:38:54;20.33;;;17.90;;
20114;SDS011;10218;42.874;25.320;2023-04-03T14:41:22;24.30;;;19.47;;
20114;SDS011;10218;42.874;25.320;2023-04-03T14:43:51;14.10;;;11.23;;
20114;SDS011;10218;42.874;25.320;2023-04-03T14:46:29;12.97;;;11.07;;
20114;SDS011;10218;42.874;25.320;2023-04-03T14:49:12;33.50;;;27.20;;
20114;SDS011;10218;42.874;25.320;2023-04-03T14:51:42;24.00;;;19.77;;
20114;SDS011;10218;42.874;25.320;2023-04-03T14:54:19;27.67;;;19.30;;
20114;SDS011;10218;42.874;25.320;2023-04-03T14:56:52;23.37;;;16.30;;
20114;SDS011;10218;42.874;25.320;2023-04-03T14:59:21;29.07;;;19.27;;
20114;SDS011;10218;42.874;25.320;2023-04-03T15:01:48;26.40;;;18.53;;
20114;SDS011;10218;42.874;25.320;2023-04-03T15:04:17;14.27;;;11.03;;
20114;SDS011;10218;42.874;25.320;2023-04-03T15:06:46;11.83;;;9.17;;
20114;SDS011;10218;42.874;25.320;2023-04-03T15:09:24;33.60;;;24.77;;
20114;SDS011;10218;42.874;25.320;2023-04-03T15:11:54;22.73;;;15.23;;
20114;SDS011;10218;42.874;25.320;2023-04-03T15:14:22;30.07;;;21.37;;
20114;SDS011;10218;42.874;25.320;2023-04-03T15:16:49;34.27;;;24.83;;
20114;SDS011;10218;42.874;25.320;2023-04-03T15:19:16;21.47;;;15.70;;
20114;SDS011;10218;42.874;25.320;2023-04-03T15:21:43;71.77;;;53.43;;
20114;SDS011;10218;42.874;25.320;2023-04-03T15:24:11;69.17;;;48.80;;
20114;SDS011;10218;42.874;25.320;2023-04-03T15:26:38;70.57;;;44.37;;
20114;SDS011;10218;42.874;25.320;2023-04-03T15:29:05;61.60;;;42.47;;
20114;SDS011;10218;42.874;25.320;2023-04-03T15:31:32;78.67;;;53.20;;
20114;SDS011;10218;42.874;25.320;2023-04-03T15:33:59;373.90;;;146.17;;
20114;SDS011;10218;42.874;25.320;2023-04-03T15:36:27;159.67;;;71.73;;
20114;SDS011;10218;42.874;25.320;2023-04-03T15:38:58;68.07;;;36.63;;
20114;SDS011;10218;42.874;25.320;2023-04-03T15:41:25;44.43;;;27.37;;
20114;SDS011;10218;42.874;25.320;2023-04-03T15:43:52;33.30;;;22.80;;
20114;SDS011;10218;42.874;25.320;2023-04-03T15:46:19;31.20;;;20.07;;
20114;SDS011;10218;42.874;25.320;2023-04-03T15:48:47;105.20;;;64.57;;
20114;SDS011;10218;42.874;25.320;2023-04-03T15:51:16;26.27;;;15.97;;
20114;SDS011;10218;42.874;25.320;2023-04-03T15:53:43;19.67;;;14.13;;
20114;SDS011;10218;42.874;25.320;2023-04-03T15:56:10;21.53;;;15.00;;
20114;SDS011;10218;42.874;25.320;2023-04-03T15:58:38;20.90;;;13.57;;
20114;SDS011;10218;42.874;25.320;2023-04-03T16:01:05;41.87;;;29.97;;
20114;SDS011;10218;42.874;25.320;2023-04-03T16:03:33;40.23;;;28.90;;
20114;SDS011;10218;42.874;25.320;2023-04-03T16:06:00;34.17;;;26.53;;
20114;SDS011;10218;42.874;25.320;2023-04-03T16:08:27;36.27;;;27.50;;
20114;SDS011;10218;42.874;25.320;2023-04-03T16:10:55;39.57;;;30.00;;
20114;SDS011;10218;42.874;25.320;2023-04-03T16:13:22;66.90;;;52.50;;
20114;SDS011;10218;42.874;25.320;2023-04-03T16:15:49;108.63;;;83.97;;
20114;SDS011;10218;42.874;25.320;2023-04-03T16:18:16;57.90;;;43.60;;
20114;SDS011;10218;42.874;25.320;2023-04-03T16:20:44;61.40;;;47.70;;
20114;SDS011;10218;42.874;25.320;2023-04-03T16:23:12;24.47;;;18.50;;
20114;SDS011;10218;42.874;25.320;2023-04-03T16:25:39;99.30;;;66.37;;
20114;SDS011;10218;42.874;25.320;2023-04-03T16:28:06;75.63;;;51.70;;